Time;durP1;ratioP1;P1;durP2;ratioP2;P2;SDS_P1;SDS_P2;PMS_P1;PMS_P2;Temp;Humidity;BMP_temperature;BMP_pressure;BME280_temperature;BME280_humidity;BME280_pressure;Samples;Min_cycle;Max_cycle;Signal;HPM_P1;HPM_P2
2022/08/18 00:00:51;;;;;;;24.27;10.38;;;;;;;19.46;100.00;99515.64;1720424;83;21609;-69
2022/08/18 00:03:19;;;;;;;23.52;10.28;;;;;;;19.40;100.00;99516.14;1720277;83;21530;-69
2022/08/18 00:05:46;;;;;;;22.32;10.72;;;;;;;19.35;100.00;99523.69;1720675;83;21127;-67
2022/08/18 00:08:13;;;;;;;20.35;11.28;;;;;;;19.28;100.00;99526.52;1720385;83;21045;-68
2022/08/18 00:10:41;;;;;;;23.42;11.10;;;;;;;19.22;100.00;99519.00;1720340;83;21095;-69
2022/08/18 00:13:09;;;;;;;19.02;10.30;;;;;;;19.25;100.00;99529.41;1693709;83;21161;-69
2022/08/18 00:15:35;;;;;;;18.67;10.63;;;;;;;19.22;100.00;99524.34;1720639;83;21112;-69
2022/08/18 00:18:02;;;;;;;20.45;10.90;;;;;;;19.13;100.00;99525.94;1720640;82;21801;-69
2022/08/18 00:20:29;;;;;;;18.95;10.68;;;;;;;19.15;100.00;99524.49;1720336;83;21060;-69
2022/08/18 00:22:56;;;;;;;16.17;10.43;;;;;;;19.14;100.00;99528.98;1720605;82;21041;-68
2022/08/18 00:25:23;;;;;;;18.62;10.13;;;;;;;19.07;100.00;99535.31;1720360;83;21495;-69
2022/08/18 00:27:50;;;;;;;15.32;9.58;;;;;;;19.05;100.00;99533.75;1720391;82;21065;-68
2022/08/18 00:30:19;;;;;;;14.60;10.25;;;;;;;18.99;100.00;99533.74;1720531;83;21128;-67
2022/08/18 00:32:55;;;;;;;13.53;9.95;;;;;;;18.98;100.00;99536.06;1720229;82;21030;-68
2022/08/18 00:35:29;;;;;;;18.50;10.98;;;;;;;18.92;100.00;99543.22;1720637;83;21081;-68
2022/08/18 00:37:58;;;;;;;14.18;10.20;;;;;;;18.88;100.00;99542.27;1720361;83;21013;-69
2022/08/18 00:40:29;;;;;;;20.30;10.45;;;;;;;18.84;100.00;99533.64;1720562;83;21100;-68
2022/08/18 00:42:58;;;;;;;16.00;10.72;;;;;;;18.82;100.00;99532.95;1720422;83;21361;-68
2022/08/18 00:45:35;;;;;;;21.37;9.98;;;;;;;18.79;100.00;99527.84;1720567;83;21557;-68
2022/08/18 00:48:04;;;;;;;22.05;11.22;;;;;;;18.76;100.00;99528.06;1719991;83;21053;-69
2022/08/18 00:50:42;;;;;;;20.15;11.40;;;;;;;18.70;100.00;99527.22;1720238;83;21061;-70
2022/08/18 00:53:28;;;;;;;26.30;11.30;;;;;;;18.68;100.00;99527.82;1723163;82;21096;-68
2022/08/18 00:55:58;;;;;;;16.82;11.12;;;;;;;18.62;100.00;99527.34;1739615;82;21849;-68
2022/08/18 00:58:29;;;;;;;14.85;11.03;;;;;;;18.60;100.00;99526.63;1742368;82;21104;-71
2022/08/18 01:00:57;;;;;;;20.48;11.68;;;;;;;18.54;100.00;99521.80;1742826;82;21530;-68
2022/08/18 01:03:24;;;;;;;18.15;11.00;;;;;;;18.49;100.00;99518.63;1742334;82;21601;-68
2022/08/18 01:06:05;;;;;;;15.70;11.05;;;;;;;18.49;100.00;99523.95;1742699;82;21089;-68
2022/08/18 01:08:32;;;;;;;22.07;11.08;;;;;;;18.48;100.00;99519.61;1742646;82;21241;-68
2022/08/18 01:11:01;;;;;;;17.07;10.23;;;;;;;18.45;100.00;99522.53;1721678;82;21510;-69
2022/08/18 01:13:31;;;;;;;16.50;10.53;;;;;;;18.48;100.00;99526.77;1742682;82;21037;-68
2022/08/18 01:15:58;;;;;;;19.32;11.55;;;;;;;18.42;100.00;99529.42;1742628;82;21506;-68
2022/08/18 01:24:04;;;;;;;16.15;10.60;;;;;;;18.46;100.00;99532.21;1742813;82;21025;-70
2022/08/18 01:26:31;;;;;;;16.10;10.13;;;;;;;18.44;100.00;99531.48;1742423;82;21081;-67
2022/08/18 01:29:10;;;;;;;20.30;10.55;;;;;;;18.42;100.00;99532.09;1742665;82;21019;-68
2022/08/18 01:31:46;;;;;;;25.10;10.90;;;;;;;18.38;100.00;99534.63;1742773;82;21128;-69
2022/08/18 01:34:12;;;;;;;19.27;10.90;;;;;;;18.37;100.00;99531.11;1742786;82;21183;-69
2022/08/18 01:36:40;;;;;;;23.27;11.08;;;;;;;18.38;100.00;99535.95;1742932;82;21038;-69
2022/08/18 01:39:10;;;;;;;20.37;10.88;;;;;;;18.36;100.00;99539.25;1742708;82;21037;-69
2022/08/18 01:41:36;;;;;;;18.33;10.53;;;;;;;18.34;100.00;99531.86;1742894;82;21083;-68
2022/08/18 01:44:04;;;;;;;21.73;11.05;;;;;;;18.31;100.00;99538.74;1742652;82;21054;-68
2022/08/18 01:46:32;;;;;;;26.07;10.85;;;;;;;18.34;100.00;99541.19;1742447;82;21261;-70
2022/08/18 01:49:00;;;;;;;16.95;10.35;;;;;;;18.28;100.00;99535.00;1742625;82;21908;-69
2022/08/18 01:51:28;;;;;;;14.87;10.32;;;;;;;18.22;100.00;99536.31;1742396;82;21057;-68
2022/08/18 01:53:55;;;;;;;16.42;10.23;;;;;;;18.21;100.00;99538.13;1723172;82;21506;-68
2022/08/18 01:56:22;;;;;;;18.67;10.15;;;;;;;18.19;100.00;99537.40;1714767;83;21528;-68
2022/08/18 01:58:48;;;;;;;16.82;9.95;;;;;;;18.20;100.00;99536.45;1720818;83;21121;-67
2022/08/18 02:01:15;;;;;;;16.90;9.83;;;;;;;18.20;100.00;99540.45;1735151;81;21033;-68
2022/08/18 02:03:45;;;;;;;12.60;9.28;;;;;;;18.21;100.00;99539.46;1750052;82;21113;-68
2022/08/18 02:06:14;;;;;;;14.13;9.73;;;;;;;18.19;100.00;99542.73;1749925;82;21628;-68
2022/08/18 02:08:42;;;;;;;22.22;10.55;;;;;;;18.18;100.00;99550.38;1749769;81;21064;-68
2022/08/18 02:11:09;;;;;;;19.25;10.72;;;;;;;18.16;100.00;99546.98;1750024;82;21820;-68
2022/08/18 02:13:36;;;;;;;20.85;10.63;;;;;;;18.19;100.00;99538.73;1749683;82;21490;-68
2022/08/18 02:16:03;;;;;;;16.50;9.70;;;;;;;18.17;100.00;99540.66;1749712;82;21069;-70
2022/08/18 02:18:32;;;;;;;25.60;10.10;;;;;;;18.13;100.00;99540.56;1749524;81;21596;-68
2022/08/18 02:21:07;;;;;;;14.53;10.15;;;;;;;18.10;100.00;99542.60;1750137;82;21104;-69
2022/08/18 02:23:34;;;;;;;15.75;10.00;;;;;;;18.09;100.00;99537.77;1749575;82;21486;-69
2022/08/18 02:26:06;;;;;;;18.55;9.98;;;;;;;18.17;100.00;99536.67;1749872;82;21573;-67
2022/08/18 02:28:34;;;;;;;19.77;10.00;;;;;;;18.11;100.00;99538.50;1749748;82;21561;-69
2022/08/18 02:31:04;;;;;;;19.87;9.55;;;;;;;18.11;100.00;99536.33;1749929;82;21060;-67
2022/08/18 02:33:31;;;;;;;19.55;9.88;;;;;;;18.10;100.00;99543.45;1749698;80;21045;-69
2022/08/18 02:35:57;;;;;;;21.25;9.85;;;;;;;18.11;100.00;99546.49;1749784;82;21241;-68
2022/08/18 02:38:24;;;;;;;23.45;10.35;;;;;;;18.07;100.00;99543.70;1749931;82;21049;-69
2022/08/18 02:40:56;;;;;;;16.80;9.85;;;;;;;18.04;100.00;99553.27;1749800;82;21054;-69
2022/08/18 02:43:23;;;;;;;17.92;10.00;;;;;;;17.99;100.00;99546.09;1750159;82;21190;-69
2022/08/18 02:45:49;;;;;;;24.98;10.08;;;;;;;17.99;100.00;99543.42;1749869;82;21097;-68
2022/08/18 02:48:18;;;;;;;21.25;9.78;;;;;;;17.97;100.00;99544.05;1749580;81;21786;-67
2022/08/18 02:50:47;;;;;;;20.27;10.15;;;;;;;17.97;100.00;99549.38;1749514;82;21072;-68
2022/08/18 02:53:23;;;;;;;19.40;10.18;;;;;;;17.99;100.00;99547.42;1743422;82;21557;-69
2022/08/18 02:55:50;;;;;;;16.17;10.03;;;;;;;17.97;100.00;99546.72;1725417;82;21608;-69
2022/08/18 02:58:19;;;;;;;22.90;11.18;;;;;;;17.96;100.00;99547.67;1725594;83;21719;-69
2022/08/18 03:00:45;;;;;;;18.62;10.88;;;;;;;17.94;100.00;99546.94;1734624;81;21112;-69
2022/08/18 03:03:12;;;;;;;17.23;9.88;;;;;;;17.94;100.00;99549.11;1755528;81;21071;-68
2022/08/18 03:05:39;;;;;;;18.07;10.50;;;;;;;17.96;100.00;99558.32;1756022;81;21596;-69
2022/08/18 03:08:05;;;;;;;18.27;10.38;;;;;;;17.99;100.00;99557.62;1755597;81;21592;-68
2022/08/18 03:10:33;;;;;;;13.40;9.73;;;;;;;17.94;100.00;99550.44;1755611;81;21072;-69
2022/08/18 03:13:00;;;;;;;23.67;10.90;;;;;;;17.97;100.00;99557.38;1755510;81;21155;-67
2022/08/18 03:15:27;;;;;;;23.25;10.53;;;;;;;18.00;100.00;99554.47;1719467;83;21089;-67
2022/08/18 03:17:56;;;;;;;21.55;11.05;;;;;;;18.04;100.00;99555.93;1703350;84;21085;-69
2022/08/18 03:20:23;;;;;;;24.87;10.47;;;;;;;18.07;100.00;99564.17;1691143;84;21085;-69
2022/08/18 03:22:49;;;;;;;18.35;10.72;;;;;;;18.08;100.00;99565.36;1703269;84;21078;-68
2022/08/18 03:25:16;;;;;;;18.57;9.48;;;;;;;18.18;100.00;99569.03;1703176;84;21192;-69
2022/08/18 03:27:43;;;;;;;18.27;10.78;;;;;;;18.30;100.00;99559.23;1702969;84;21002;-69
2022/08/18 03:30:10;;;;;;;16.15;9.50;;;;;;;18.54;100.00;99575.13;1703150;84;21093;-69
2022/08/18 03:32:37;;;;;;;18.48;9.10;;;;;;;18.70;100.00;99573.89;1702977;84;21046;-69
2022/08/18 03:35:05;;;;;;;16.42;9.55;;;;;;;18.88;100.00;99567.11;1703265;84;21632;-68
2022/08/18 03:37:32;;;;;;;21.45;9.43;;;;;;;19.08;100.00;99574.36;1703041;84;21093;-69
2022/08/18 03:39:58;;;;;;;17.23;9.40;;;;;;;19.28;100.00;99571.89;1703469;84;21058;-68
2022/08/18 03:42:25;;;;;;;17.20;8.95;;;;;;;19.52;100.00;99570.84;1703032;84;21077;-68
2022/08/18 03:44:51;;;;;;;17.20;8.38;;;;;;;19.75;100.00;99569.78;1703513;84;21014;-69
2022/08/18 03:47:18;;;;;;;22.17;8.35;;;;;;;19.93;100.00;99569.22;1703114;84;21030;-69
2022/08/18 03:49:45;;;;;;;15.15;8.95;;;;;;;20.11;100.00;99574.33;1703260;84;21543;-69
2022/08/18 03:52:11;;;;;;;17.10;8.58;;;;;;;20.32;100.00;99579.16;1703083;84;21058;-68
2022/08/18 03:54:37;;;;;;;13.70;8.70;;;;;;;20.56;100.00;99574.48;1703346;84;21458;-70
2022/08/18 03:57:07;;;;;;;19.55;8.25;;;;;;;20.72;100.00;99581.55;1679002;84;21085;-69
2022/08/18 03:59:33;;;;;;;20.70;8.43;;;;;;;20.88;100.00;99582.37;1707458;84;21062;-69
2022/08/18 04:02:02;;;;;;;18.00;7.97;;;;;;;21.16;100.00;99588.31;1696848;84;21245;-70
2022/08/18 04:04:28;;;;;;;18.90;7.72;;;;;;;21.35;100.00;99579.96;1696946;84;21605;-69
2022/08/18 04:07:03;;;;;;;12.73;6.78;;;;;;;21.54;100.00;99579.99;1697195;84;21108;-69
2022/08/18 04:10:43;;;;;;;18.25;7.58;;;;;;;22.02;100.00;99581.43;1882132;75;22466;-70
2022/08/18 04:13:10;;;;;;;12.20;7.70;;;;;;;22.28;100.00;99579.87;1858632;77;21536;-68
2022/08/18 04:15:37;;;;;;;13.22;6.80;;;;;;;22.50;99.92;99579.16;1858608;77;21175;-68
2022/08/18 04:18:07;;;;;;;12.73;6.08;;;;;;;22.70;97.30;99582.11;1858863;77;20952;-70
2022/08/18 04:20:32;;;;;;;15.28;6.62;;;;;;;22.87;94.34;99578.28;1858511;77;21112;-69
2022/08/18 04:22:59;;;;;;;12.23;6.42;;;;;;;22.99;94.64;99578.48;1858616;77;21556;-70
2022/08/18 04:25:25;;;;;;;11.55;6.22;;;;;;;23.11;92.78;99574.59;1858869;77;21028;-70
2022/08/18 04:27:56;;;;;;;9.70;7.05;;;;;;;23.27;91.02;99572.58;1858798;77;21492;-69
2022/08/18 04:30:21;;;;;;;15.18;6.87;;;;;;;23.39;91.05;99566.48;1858637;77;20983;-70
2022/08/18 04:32:49;;;;;;;16.00;6.22;;;;;;;23.60;89.01;99568.38;1857086;77;21634;-70
2022/08/18 04:35:15;;;;;;;11.90;6.62;;;;;;;23.76;88.38;99570.88;1857286;77;21022;-70
2022/08/18 04:37:42;;;;;;;7.62;5.60;;;;;;;23.97;87.45;99566.50;1856801;77;21585;-69
2022/08/18 04:40:13;;;;;;;17.70;6.22;;;;;;;24.13;84.20;99568.47;1857307;77;21690;-69
2022/08/18 04:42:40;;;;;;;11.93;5.75;;;;;;;24.13;84.32;99569.81;1856727;77;21022;-70
2022/08/18 04:45:08;;;;;;;13.83;6.00;;;;;;;24.26;85.00;99572.43;1856717;77;21014;-69
2022/08/18 04:47:35;;;;;;;15.48;6.10;;;;;;;24.64;82.78;99576.19;1856401;77;21058;-69
2022/08/18 04:50:03;;;;;;;10.28;5.80;;;;;;;24.91;80.43;99573.31;1826239;77;21014;-70
2022/08/18 04:55:14;;;;;;;15.98;5.55;;;;;;;25.18;78.45;99590.73;1823563;78;21565;-71
2022/08/18 04:57:41;;;;;;;9.33;5.25;;;;;;;25.47;77.31;99586.28;1823197;78;21528;-70
2022/08/18 05:00:12;;;;;;;9.20;5.50;;;;;;;25.73;77.70;99584.78;1823234;78;21014;-70
2022/08/18 05:02:37;;;;;;;10.95;5.03;;;;;;;26.07;74.69;99594.09;1822983;78;21112;-70
2022/08/18 05:05:06;;;;;;;9.13;5.33;;;;;;;26.26;75.04;99594.23;1823206;78;21274;-70
2022/08/18 05:07:33;;;;;;;13.03;5.28;;;;;;;26.61;73.01;99587.27;1823029;78;21042;-69
2022/08/18 05:09:59;;;;;;;11.30;5.83;;;;;;;26.81;71.69;99584.49;1823301;78;21048;-68
2022/08/18 05:12:27;;;;;;;12.70;5.15;;;;;;;26.91;70.48;99585.11;1823010;78;21030;-70
2022/08/18 05:14:55;;;;;;;11.40;5.72;;;;;;;26.92;69.82;99584.11;1823092;78;20992;-69
2022/08/18 05:17:27;;;;;;;16.82;5.95;;;;;;;27.01;69.33;99590.33;1823238;78;21096;-69
2022/08/18 05:19:51;;;;;;;7.78;5.15;;;;;;;27.08;69.56;99590.44;1823083;78;22273;-69
2022/08/18 05:22:19;;;;;;;12.18;5.80;;;;;;;27.22;70.15;99595.14;1822554;78;21018;-69
2022/08/18 05:24:46;;;;;;;11.73;5.55;;;;;;;27.37;67.34;99589.29;1822729;78;21664;-70
2022/08/18 05:27:12;;;;;;;12.73;5.35;;;;;;;27.31;67.31;99590.02;1822658;78;21578;-71
2022/08/18 05:29:40;;;;;;;19.75;5.87;;;;;;;27.34;67.06;99582.90;1822438;78;21560;-70
2022/08/18 05:32:06;;;;;;;12.15;5.33;;;;;;;27.44;67.16;99585.36;1822511;77;21034;-69
2022/08/18 05:34:34;;;;;;;12.33;5.40;;;;;;;27.91;63.36;99588.44;1822630;78;20991;-71
2022/08/18 05:37:22;;;;;;;12.55;5.00;;;;;;;27.91;63.36;99588.44;1822720;78;21022;-70
2022/08/18 05:40:01;;;;;;;14.55;5.58;;;;;;;28.01;61.67;99578.70;1823074;78;21062;-69
2022/08/18 05:42:32;;;;;;;14.20;5.40;;;;;;;28.08;60.41;99583.70;1822495;78;21462;-71
2022/08/18 05:44:59;;;;;;;14.58;5.58;;;;;;;28.24;60.39;99576.78;1821727;78;21098;-71
2022/08/18 05:47:29;;;;;;;18.20;5.50;;;;;;;28.54;60.49;99575.48;1822518;78;21037;-68
2022/08/18 05:50:07;;;;;;;12.87;4.83;;;;;;;29.02;58.83;99579.14;1823035;78;21003;-70
2022/08/18 05:53:00;;;;;;;15.48;5.00;;;;;;;29.27;56.93;99582.39;1822483;78;21092;-69
2022/08/18 05:58:30;;;;;;;11.12;5.00;;;;;;;29.63;56.28;99576.93;1822438;78;21081;-69
2022/08/18 06:00:59;;;;;;;12.37;5.20;;;;;;;29.77;55.15;99577.92;1822862;78;21062;-70
2022/08/18 06:03:39;;;;;;;13.68;5.00;;;;;;;29.80;54.45;99582.95;1821705;78;21019;-70
2022/08/18 06:06:13;;;;;;;15.45;5.70;;;;;;;29.86;55.03;99584.90;1822752;78;21502;-69
2022/08/18 06:08:46;;;;;;;14.07;5.22;;;;;;;30.09;55.00;99584.67;1822673;78;21930;-69
2022/08/18 06:11:13;;;;;;;9.00;5.03;;;;;;;30.39;48.93;99583.64;1826495;77;21597;-70
2022/08/18 06:13:41;;;;;;;12.90;4.70;;;;;;;30.62;47.63;99581.51;1859362;77;21026;-69
2022/08/18 06:16:19;;;;;;;13.48;5.03;;;;;;;30.71;48.05;99584.88;1834005;77;21464;-70
2022/08/18 06:18:57;;;;;;;11.90;4.72;;;;;;;31.00;46.67;99582.44;1858973;77;21037;-69
2022/08/18 06:22:03;;;;;;;16.10;5.28;;;;;;;31.26;46.35;99589.84;1859489;77;21092;-70
2022/08/18 06:24:55;;;;;;;11.45;4.95;;;;;;;31.41;44.88;99588.36;1859029;77;21046;-69
2022/08/18 06:28:09;;;;;;;10.18;4.65;;;;;;;31.46;44.79;99587.22;1857486;77;21061;-70
2022/08/18 06:30:58;;;;;;;11.18;5.00;;;;;;;31.48;45.06;99582.94;1858705;77;21057;-70
2022/08/18 06:33:49;;;;;;;12.23;5.40;;;;;;;31.91;44.84;99584.77;1859059;77;21018;-71
2022/08/18 06:36:45;;;;;;;9.03;5.20;;;;;;;32.09;43.27;99584.68;1859256;77;22241;-70
2022/08/18 06:39:25;;;;;;;10.72;5.35;;;;;;;32.06;43.58;99587.84;1821426;78;21044;-70
2022/08/18 06:41:52;;;;;;;10.18;4.95;;;;;;;32.01;42.71;99584.91;1854010;77;21034;-71
2022/08/18 06:44:37;;;;;;;10.48;4.78;;;;;;;31.75;43.93;99577.85;1858751;77;21065;-72
2022/08/18 06:47:15;;;;;;;13.58;4.67;;;;;;;31.89;44.12;99584.14;1857733;77;21038;-71
2022/08/18 06:49:50;;;;;;;12.43;4.85;;;;;;;32.20;43.15;99582.69;1859285;77;21118;-71
2022/08/18 06:52:28;;;;;;;13.35;5.33;;;;;;;32.55;42.50;99578.36;1859174;77;21566;-70
2022/08/18 06:54:59;;;;;;;9.33;5.65;;;;;;;32.59;41.98;99576.89;1827408;77;21525;-68
2022/08/18 06:57:33;;;;;;;19.10;5.47;;;;;;;32.34;41.81;99584.34;1825113;78;21034;-69
2022/08/18 07:00:11;;;;;;;25.90;5.92;;;;;;;32.25;43.41;99585.61;1825477;78;21053;-71
2022/08/18 07:03:13;;;;;;;71.42;8.50;;;;;;;32.51;42.77;99582.55;1822495;78;21225;-70
2022/08/18 07:06:10;;;;;;;36.90;6.25;;;;;;;32.92;41.88;99580.02;1824984;78;21070;-70
2022/08/18 07:08:42;;;;;;;17.15;6.20;;;;;;;33.19;41.04;99580.77;1787861;78;21112;-70
2022/08/18 07:11:21;;;;;;;13.78;5.50;;;;;;;33.46;39.67;99585.56;1825728;78;21051;-71
2022/08/18 07:13:57;;;;;;;8.45;4.90;;;;;;;33.48;40.34;99580.72;1825742;78;21022;-70
2022/08/18 07:16:31;;;;;;;11.85;4.72;;;;;;;33.50;39.71;99577.25;1825968;78;21881;-70
2022/08/18 07:19:14;;;;;;;12.68;5.10;;;;;;;33.66;39.27;99572.33;1825533;78;21147;-70
2022/08/18 07:21:41;;;;;;;14.03;5.10;;;;;;;33.94;38.59;99574.11;1826094;78;21104;-70
2022/08/18 07:24:15;;;;;;;13.13;4.35;;;;;;;33.92;39.06;99583.05;1825740;78;21045;-69
2022/08/18 07:27:06;;;;;;;9.85;4.58;;;;;;;34.19;38.36;99582.87;1825529;78;21565;-71
2022/08/18 07:29:41;;;;;;;11.35;4.65;;;;;;;34.26;37.95;99585.01;1825597;78;21152;-70
2022/08/18 07:32:14;;;;;;;12.18;4.80;;;;;;;34.18;37.58;99584.74;1825946;78;21521;-70
2022/08/18 07:34:48;;;;;;;16.25;4.58;;;;;;;34.08;37.83;99585.77;1825599;78;21110;-69
2022/08/18 07:37:38;;;;;;;9.88;4.42;;;;;;;33.87;36.63;99589.72;1825877;78;21085;-71
2022/08/18 07:40:23;;;;;;;10.43;3.85;;;;;;;33.54;38.11;99596.20;1825876;78;21081;-70
2022/08/18 07:43:03;;;;;;;8.50;4.12;;;;;;;33.63;38.00;99594.91;1825592;78;21779;-70
2022/08/18 07:45:37;;;;;;;9.68;4.28;;;;;;;33.45;38.08;99593.42;1825556;78;20993;-71
2022/08/18 07:48:12;;;;;;;12.70;4.33;;;;;;;33.35;37.96;99591.17;1825638;78;21042;-69
2022/08/18 07:50:59;;;;;;;14.25;4.03;;;;;;;33.44;37.97;99593.12;1825650;78;21089;-70
2022/08/18 07:53:56;;;;;;;11.53;4.30;;;;;;;33.44;37.95;99597.22;1842300;76;21588;-69
2022/08/18 07:56:46;;;;;;;11.95;4.37;;;;;;;33.43;37.78;99599.66;1874119;76;21125;-69
2022/08/18 07:59:33;;;;;;;9.48;4.20;;;;;;;33.49;38.13;99598.76;1874542;76;21033;-70
2022/08/18 08:02:45;;;;;;;8.88;3.90;;;;;;;33.78;38.29;99605.53;1874434;76;21033;-71
2022/08/18 08:05:40;;;;;;;15.55;4.33;;;;;;;34.21;36.17;99593.02;1874496;76;21086;-70
2022/08/18 08:08:47;;;;;;;16.60;4.87;;;;;;;34.29;35.98;99599.58;1874266;76;21041;-70
2022/08/18 08:11:35;;;;;;;9.18;4.15;;;;;;;34.12;36.25;99595.73;1825162;76;21073;-70
2022/08/18 08:14:12;;;;;;;8.75;4.17;;;;;;;34.05;36.10;99595.24;1788425;80;21068;-71
2022/08/18 08:16:48;;;;;;;11.22;4.28;;;;;;;34.06;37.08;99591.44;1818690;78;21699;-71
2022/08/18 08:19:43;;;;;;;17.92;4.12;;;;;;;34.18;36.26;99598.94;1788310;80;21557;-71
2022/08/18 08:22:24;;;;;;;9.58;3.85;;;;;;;34.05;35.00;99595.24;1821219;78;21735;-69
2022/08/18 08:24:56;;;;;;;13.85;4.55;;;;;;;33.52;36.38;99590.16;1788537;79;21285;-70
2022/08/18 08:27:37;;;;;;;10.28;3.95;;;;;;;33.59;36.79;99590.97;1821281;78;21050;-70
2022/08/18 08:30:11;;;;;;;18.37;4.78;;;;;;;33.78;36.50;99592.42;1788636;80;21084;-70
2022/08/18 08:33:22;;;;;;;19.15;4.37;;;;;;;33.86;35.95;99594.86;1791354;78;21120;-71
2022/08/18 08:36:04;;;;;;;10.48;4.25;;;;;;;33.95;35.86;99586.70;1788902;79;21521;-70
2022/08/18 08:38:47;;;;;;;15.40;3.92;;;;;;;33.77;36.33;99584.73;1821226;78;21125;-71
2022/08/18 08:41:34;;;;;;;12.33;4.30;;;;;;;33.84;36.54;99580.59;1788777;80;20997;-71
2022/08/18 08:44:20;;;;;;;9.68;4.65;;;;;;;33.72;36.74;99579.64;1820964;78;21057;-69
2022/08/18 08:47:02;;;;;;;9.03;4.37;;;;;;;33.91;37.08;99577.27;1788706;79;21081;-69
2022/08/18 08:49:48;;;;;;;7.70;3.95;;;;;;;34.13;36.27;99587.86;1820814;78;21518;-70
2022/08/18 08:52:25;;;;;;;9.53;3.87;;;;;;;34.06;35.12;99591.44;1788625;80;21264;-69
2022/08/18 08:54:58;;;;;;;11.20;4.37;;;;;;;33.71;36.11;99588.91;1792769;78;21045;-70
2022/08/18 08:57:36;;;;;;;9.35;3.50;;;;;;;33.32;36.50;99589.43;1789826;80;21046;-71
2022/08/18 09:00:07;;;;;;;13.43;4.20;;;;;;;33.11;37.56;99585.14;1791396;80;21352;-71
2022/08/18 09:02:43;;;;;;;;;;;;;;;33.15;36.77;99590.44;1793956;80;21058;-71
2022/08/18 09:05:17;;;;;;;10.35;3.95;;;;;;;33.19;37.27;99599.34;1791974;80;21736;-69
2022/08/18 09:08:07;;;;;;;17.27;4.62;;;;;;;33.25;37.83;99594.92;1791285;80;21026;-69
2022/08/18 09:11:10;;;;;;;13.40;4.62;;;;;;;33.61;37.50;99595.69;1786976;80;21051;-70
2022/08/18 09:13:50;;;;;;;11.60;4.12;;;;;;;33.95;36.27;99601.72;1758876;81;21624;-70
2022/08/18 09:16:53;;;;;;;18.57;3.62;;;;;;;34.19;35.44;99600.63;1777571;80;20976;-71
2022/08/18 09:19:31;;;;;;;10.20;3.55;;;;;;;34.11;34.84;99603.63;1727861;83;21127;-70
2022/08/18 09:22:37;;;;;;;12.50;4.20;;;;;;;33.69;35.63;99604.67;1777405;80;21094;-70
2022/08/18 09:25:10;;;;;;;8.53;3.67;;;;;;;33.59;35.79;99601.03;1776883;80;21080;-70
2022/08/18 09:27:44;;;;;;;7.70;3.60;;;;;;;33.71;36.38;99599.83;1777239;80;21067;-70
2022/08/18 09:30:42;;;;;;;8.08;3.52;;;;;;;33.76;35.45;99593.99;1777573;80;21039;-70
2022/08/18 09:33:30;;;;;;;11.88;3.75;;;;;;;33.83;36.18;99591.22;1722419;83;21308;-71
2022/08/18 09:36:23;;;;;;;8.63;3.60;;;;;;;33.95;34.55;99596.80;1756557;81;21086;-71
2022/08/18 09:42:29;;;;;;;11.30;3.80;;;;;;;33.51;35.85;99592.55;1759261;81;21090;-69
2022/08/18 09:45:00;;;;;;;9.23;3.52;;;;;;;33.47;35.79;99589.95;1758880;81;21577;-70
2022/08/18 09:47:32;;;;;;;11.33;4.10;;;;;;;33.60;35.72;99591.27;1759159;81;21845;-72
2022/08/18 09:50:16;;;;;;;9.68;4.20;;;;;;;33.67;36.61;99594.49;1758861;81;21597;-70
2022/08/18 09:52:46;;;;;;;12.10;4.25;;;;;;;33.82;36.95;99584.06;1759064;81;21099;-70
2022/08/18 09:55:24;;;;;;;13.98;4.28;;;;;;;34.18;36.76;99582.55;1756446;81;21576;-70
2022/08/18 09:58:16;;;;;;;12.53;4.45;;;;;;;34.43;35.78;99590.18;1756495;81;21113;-71
2022/08/18 10:00:43;;;;;;;13.30;4.00;;;;;;;34.31;36.25;99593.36;1787651;80;21159;-71
2022/08/18 10:03:14;;;;;;;17.45;4.95;;;;;;;34.18;36.63;99593.48;1730763;81;21083;-71
2022/08/18 10:06:07;;;;;;;12.78;4.60;;;;;;;34.06;37.14;99592.80;1756462;81;21053;-71
2022/08/18 10:09:04;;;;;;;10.03;4.20;;;;;;;34.23;36.78;99591.76;1754673;81;21068;-73
2022/08/18 10:11:42;;;;;;;9.15;3.90;;;;;;;34.51;34.75;99592.31;1768687;79;21569;-71
2022/08/18 10:14:40;;;;;;;16.23;4.25;;;;;;;34.30;35.83;99597.13;1785181;78;21124;-71
2022/08/18 10:17:33;;;;;;;17.27;4.22;;;;;;;34.46;36.37;99593.84;1787751;79;21549;-71
2022/08/18 10:20:25;;;;;;;7.33;4.40;;;;;;;34.80;35.97;99592.13;1821261;78;21283;-70
2022/08/18 10:22:52;;;;;;;11.73;4.60;;;;;;;34.98;35.32;99583.08;1788645;80;21006;-71
2022/08/18 10:25:37;;;;;;;12.58;4.00;;;;;;;34.78;34.60;99589.61;1821179;78;21033;-71
2022/08/18 10:28:09;;;;;;;11.18;4.72;;;;;;;34.54;35.43;99590.51;1788491;80;21753;-71
2022/08/18 10:42:08;;;;;;;13.53;4.53;;;;;;;34.30;34.75;99586.73;1810146;79;21017;-71
2022/08/18 10:44:39;;;;;;;11.50;4.37;;;;;;;34.12;35.85;99587.53;1815431;79;21753;-72
2022/08/18 10:47:06;;;;;;;9.53;4.10;;;;;;;34.13;36.66;99591.42;1815311;78;21038;-71
2022/08/18 10:49:33;;;;;;;14.78;3.80;;;;;;;34.27;35.57;99588.03;1815321;79;21093;-70
2022/08/18 10:52:11;;;;;;;9.60;4.10;;;;;;;34.52;35.41;99585.80;1815771;79;21112;-70
2022/08/18 10:55:03;;;;;;;11.10;4.10;;;;;;;34.77;34.77;99589.33;1809806;79;21547;-71
2022/08/18 10:57:59;;;;;;;16.25;3.80;;;;;;;34.74;34.54;99588.42;1740421;82;21131;-71
2022/08/18 11:00:48;;;;;;;8.45;4.20;;;;;;;34.77;34.53;99591.23;1740385;82;21085;-70
2022/08/18 11:03:39;;;;;;;10.15;3.77;;;;;;;34.81;35.28;99589.18;1740728;82;21105;-72
2022/08/18 11:06:11;;;;;;;11.10;4.65;;;;;;;34.80;34.69;99590.23;1760862;81;21044;-70
2022/08/18 11:08:46;;;;;;;9.28;4.10;;;;;;;34.80;35.51;99590.23;1740596;82;21643;-71
2022/08/18 11:11:12;;;;;;;12.88;4.17;;;;;;;34.88;35.50;99589.10;1760118;81;21132;-70
2022/08/18 11:14:04;;;;;;;8.93;3.95;;;;;;;34.95;34.72;99598.06;1758125;81;21093;-70
2022/08/18 11:16:43;;;;;;;;;;;;;;;34.79;35.20;99592.67;1760923;81;21029;-71
2022/08/18 11:19:13;;;;;;;8.88;3.65;;;;;;;34.61;35.16;99592.13;1758089;81;20527;-72
2022/08/18 11:21:43;;;;;;;9.95;4.15;;;;;;;34.49;35.86;99589.82;1758510;81;21122;-71
2022/08/18 11:24:23;;;;;;;7.90;4.33;;;;;;;34.56;35.63;99590.58;1699994;84;21325;-71
2022/08/18 11:27:03;;;;;;;10.78;4.30;;;;;;;34.67;36.04;99586.27;1747289;82;21101;-71
2022/08/18 11:29:38;;;;;;;9.85;4.20;;;;;;;34.68;35.99;99574.28;1699990;84;21022;-70
2022/08/18 11:32:12;;;;;;;7.78;3.85;;;;;;;34.82;35.90;99577.16;1747165;82;21049;-71
2022/08/18 11:34:47;;;;;;;9.68;3.45;;;;;;;34.98;35.26;99578.98;1700092;84;21566;-70
2022/08/18 11:37:47;;;;;;;8.40;3.98;;;;;;;35.10;34.12;99563.45;1747478;82;21850;-71
2022/08/18 11:40:34;;;;;;;;;;;;;;;34.86;34.17;99566.07;1702549;84;21518;-70
2022/08/18 11:43:12;;;;;;;12.40;3.98;;;;;;;34.55;35.63;99562.09;1699993;84;20510;-70
2022/08/18 11:45:54;;;;;;;13.35;3.90;;;;;;;34.53;35.13;99569.69;1746826;82;21112;-71
2022/08/18 11:48:37;;;;;;;;;;;;;;;34.31;35.89;99560.56;1702745;84;21661;-73
2022/08/18 11:51:24;;;;;;;7.00;3.87;;;;;;;34.17;35.69;99570.79;1700101;84;21146;-71
2022/08/18 11:54:04;;;;;;;12.70;4.10;;;;;;;33.91;36.11;99570.98;1761186;80;21154;-70
2022/08/18 11:56:34;;;;;;;9.95;3.77;;;;;;;33.93;36.50;99572.42;1771994;80;21100;-70
2022/08/18 11:59:27;;;;;;;8.73;3.80;;;;;;;34.12;36.15;99575.23;1774853;80;21132;-71
2022/08/18 12:01:54;;;;;;;8.43;3.52;;;;;;;34.31;35.78;99570.67;1774483;80;21131;-71
2022/08/18 12:04:37;;;;;;;11.97;4.00;;;;;;;34.40;35.46;99571.51;1774368;80;21226;-72
2022/08/18 12:07:07;;;;;;;10.23;3.80;;;;;;;34.23;35.44;99566.31;1774441;80;21128;-71
2022/08/18 12:09:45;;;;;;;11.38;4.15;;;;;;;34.08;36.20;99566.64;1774543;80;21041;-71
2022/08/18 12:12:31;;;;;;;10.90;4.00;;;;;;;34.10;35.81;99567.83;1774367;80;21156;-71
2022/08/18 12:15:13;;;;;;;13.50;3.70;;;;;;;34.18;35.50;99564.25;1774313;80;22207;-71
2022/08/18 12:17:41;;;;;;;8.23;3.55;;;;;;;34.21;34.92;99561.59;1774364;80;21223;-71
2022/08/18 12:20:09;;;;;;;10.25;3.80;;;;;;;34.19;35.61;99562.38;1774621;80;21525;-70
2022/08/18 12:22:39;;;;;;;11.10;3.42;;;;;;;34.19;34.87;99573.31;1774500;80;21085;-70
2022/08/18 12:25:10;;;;;;;7.97;3.55;;;;;;;34.09;34.95;99570.20;1774493;80;21049;-71